createdAt,value
2018-05-04T00:00:11.431Z,90.61
2018-05-04T00:01:11.344Z,89.75
2018-05-04T00:02:11.256Z,89.37
2018-05-04T00:03:11.181Z,90.42
2018-05-04T00:04:11.095Z,89.65
2018-05-04T00:05:11.019Z,89.47
2018-05-04T00:06:10.932Z,89.08
2018-05-04T00:07:10.856Z,90.03
2018-05-04T00:08:10.771Z,89.65
2018-05-04T00:09:10.692Z,89.56
2018-05-04T00:10:10.608Z,90.03
2018-05-04T00:11:10.530Z,90.22
2018-05-04T00:12:10.448Z,89.65
2018-05-04T00:13:10.370Z,90.61
2018-05-04T00:14:10.282Z,90.80
2018-05-04T00:15:10.207Z,89.75
2018-05-04T00:16:10.118Z,90.99
2018-05-04T00:17:10.044Z,89.94
2018-05-04T00:18:09.955Z,90.42
2018-05-04T00:19:09.880Z,88.85
2018-05-04T00:20:09.795Z,89.37
2018-05-04T00:21:09.720Z,88.79
2018-05-04T00:22:09.633Z,89.42
2018-05-04T00:23:09.558Z,89.51
2018-05-04T00:24:09.469Z,90.08
2018-05-04T00:25:09.396Z,89.23
2018-05-04T00:26:09.306Z,89.51
2018-05-04T00:27:09.231Z,89.32
2018-05-04T00:28:09.150Z,87.90
2018-05-04T00:29:09.071Z,89.61
2018-05-04T00:30:08.984Z,88.66
2018-05-04T00:31:08.922Z,88.75
2018-05-04T00:32:08.819Z,86.85
2018-05-04T00:33:08.750Z,88.09
2018-05-04T00:34:08.656Z,88.85
2018-05-04T00:35:08.582Z,89.23
2018-05-04T00:36:08.497Z,89.23
2018-05-04T00:37:08.421Z,87.80
2018-05-04T00:38:08.332Z,89.51
2018-05-04T00:39:08.257Z,86.28
2018-05-04T00:40:08.174Z,88.37
2018-05-04T00:41:08.098Z,89.89
2018-05-04T00:42:08.010Z,88.37
2018-05-04T00:43:07.934Z,89.42
2018-05-04T00:44:07.846Z,88.28
2018-05-04T00:45:07.771Z,87.04
2018-05-04T00:46:07.682Z,86.94
2018-05-04T00:47:07.609Z,86.85
2018-05-04T00:48:07.523Z,88.28
2018-05-04T00:49:07.451Z,87.61
2018-05-04T00:50:07.360Z,86.85
2018-05-04T00:51:07.285Z,86.28
2018-05-04T00:52:07.198Z,86.76
2018-05-04T00:53:07.124Z,87.80
2018-05-04T00:54:07.035Z,86.66
2018-05-04T00:55:06.964Z,86.57
2018-05-04T00:56:06.872Z,87.71
2018-05-04T00:57:06.797Z,86.38
2018-05-04T00:58:06.722Z,86.47
2018-05-04T00:59:06.634Z,86.28
2018-05-04T01:00:06.553Z,85.80
2018-05-04T01:01:06.475Z,85.61
2018-05-04T01:02:06.386Z,83.23
2018-05-04T01:03:06.324Z,85.52
2018-05-04T01:04:06.226Z,85.33
2018-05-04T01:05:06.152Z,85.61
2018-05-04T01:06:06.060Z,85.61
2018-05-04T01:07:05.986Z,85.42
2018-05-04T01:08:05.898Z,85.14
2018-05-04T01:09:05.823Z,85.04
2018-05-04T01:10:05.736Z,85.99
2018-05-04T01:11:05.661Z,84.47
2018-05-04T01:12:05.577Z,86.76
2018-05-04T01:13:05.490Z,85.80
2018-05-04T01:14:05.426Z,86.94
2018-05-04T01:15:05.327Z,85.86
2018-05-04T01:16:05.258Z,85.42
2018-05-04T01:17:05.165Z,84.62
2018-05-04T01:18:05.090Z,84.47
2018-05-04T01:19:05.000Z,84.05
2018-05-04T01:20:04.932Z,85.14
2018-05-04T01:21:04.839Z,84.19
2018-05-04T01:22:04.767Z,83.95
2018-05-04T01:23:04.678Z,83.86
2018-05-04T01:24:04.601Z,83.29
2018-05-04T01:25:04.527Z,82.43
2018-05-04T01:26:04.440Z,83.48
2018-05-04T01:27:04.354Z,82.71
2018-05-04T01:28:04.276Z,83.39
2018-05-04T01:29:04.187Z,84.24
2018-05-04T01:30:04.114Z,83.95
2018-05-04T01:31:04.030Z,83.95
2018-05-04T01:32:03.953Z,83.10
2018-05-04T01:33:03.865Z,83.48
2018-05-04T01:34:03.790Z,81.58
2018-05-04T01:35:03.703Z,83.10
2018-05-04T01:36:03.627Z,82.43
2018-05-04T01:37:03.551Z,82.43
2018-05-04T01:38:03.452Z,82.15
2018-05-04T01:39:03.377Z,82.05
2018-05-04T01:40:03.290Z,82.53
2018-05-04T01:41:03.215Z,81.38
2018-05-04T01:42:03.127Z,82.71
2018-05-04T01:43:03.052Z,82.91
2018-05-04T01:44:02.970Z,84.05
2018-05-04T01:45:02.891Z,82.91
2018-05-04T01:46:02.804Z,82.53
2018-05-04T01:47:02.730Z,82.62
2018-05-04T01:48:02.642Z,80.63
2018-05-04T01:49:02.565Z,81.01
2018-05-04T01:50:02.480Z,80.63
2018-05-04T01:51:02.404Z,79.96
2018-05-04T01:52:02.317Z,79.96
2018-05-04T01:53:02.243Z,79.96
2018-05-04T01:54:02.155Z,81.01
2018-05-04T01:55:02.080Z,80.91
2018-05-04T01:56:02.009Z,81.58
2018-05-04T01:57:01.918Z,81.96
2018-05-04T01:58:01.838Z,80.34
2018-05-04T01:59:01.744Z,80.77
2018-05-04T02:00:01.667Z,80.24
2018-05-04T02:01:01.580Z,80.53
2018-05-04T02:02:01.504Z,80.15
2018-05-04T02:03:01.416Z,79.58
2018-05-04T02:04:01.346Z,79.01
2018-05-04T02:05:01.257Z,79.92
2018-05-04T02:06:01.181Z,80.21
2018-05-04T02:07:01.093Z,79.96
2018-05-04T02:08:01.018Z,79.96
2018-05-04T02:09:00.931Z,79.92
2018-05-04T02:10:00.856Z,81.06
2018-05-04T02:11:00.767Z,79.39
2018-05-04T02:12:00.692Z,78.59
2018-05-04T02:13:00.606Z,77.49
2018-05-04T02:14:00.530Z,77.07
2018-05-04T02:15:00.442Z,78.02
2018-05-04T02:16:00.358Z,78.21
2018-05-04T02:17:00.284Z,78.97
2018-05-04T02:18:00.195Z,79.16
2018-05-04T02:19:00.134Z,79.54
2018-05-04T02:20:00.031Z,79.73
2018-05-04T02:20:59.962Z,78.97
2018-05-04T02:21:59.869Z,78.59
2018-05-04T02:22:59.793Z,77.64
2018-05-04T02:23:59.709Z,77.92
2018-05-04T02:24:59.634Z,77.73
2018-05-04T02:25:59.546Z,77.64
2018-05-04T02:26:59.471Z,77.36
2018-05-04T02:27:59.383Z,77.26
2018-05-04T02:28:59.298Z,77.64
2018-05-04T02:29:59.232Z,76.03
2018-05-04T02:30:59.133Z,75.93
2018-05-04T02:31:59.061Z,75.64
2018-05-04T02:32:58.979Z,76.12
2018-05-04T02:33:58.897Z,76.50
2018-05-04T02:34:58.810Z,75.74
2018-05-04T02:35:58.734Z,75.45
2018-05-04T02:36:58.644Z,74.51
2018-05-04T02:37:58.570Z,73.84
2018-05-04T02:38:58.483Z,73.27
2018-05-04T02:39:58.414Z,73.23
2018-05-04T02:40:58.322Z,73.23
2018-05-04T02:41:58.236Z,72.79
2018-05-04T02:42:58.161Z,72.56
2018-05-04T02:43:58.073Z,72.85
2018-05-04T02:44:57.998Z,72.19
2018-05-04T02:45:57.914Z,71.62
2018-05-04T02:46:57.838Z,72.38
2018-05-04T02:47:57.746Z,71.81
2018-05-04T02:48:57.671Z,71.81
2018-05-04T02:49:57.585Z,71.33
2018-05-04T02:50:57.499Z,71.23
2018-05-04T02:51:57.423Z,71.23
2018-05-04T02:52:57.338Z,70.86
2018-05-04T02:53:57.266Z,70.19
2018-05-04T02:54:57.173Z,70.76
2018-05-04T02:55:57.100Z,69.05
2018-05-04T02:56:57.010Z,69.62
2018-05-04T02:57:56.937Z,69.53
2018-05-04T02:58:56.847Z,69.53
2018-05-04T02:59:56.771Z,69.91
2018-05-04T03:00:56.685Z,69.43
2018-05-04T03:01:56.598Z,68.19
2018-05-04T03:02:56.523Z,67.91
2018-05-04T03:03:56.438Z,67.44
2018-05-04T03:04:56.363Z,66.96
2018-05-04T03:05:56.275Z,67.15
2018-05-04T03:06:56.200Z,66.30
2018-05-04T03:07:56.113Z,66.01
2018-05-04T03:08:56.037Z,66.01
2018-05-04T03:09:55.951Z,65.35
2018-05-04T03:10:55.861Z,65.06
2018-05-04T03:11:55.795Z,65.16
2018-05-04T03:12:55.704Z,65.73
2018-05-04T03:13:55.630Z,64.97
2018-05-04T03:14:55.542Z,64.97
2018-05-04T03:15:55.464Z,64.78
2018-05-04T03:16:55.377Z,64.30
2018-05-04T03:17:55.290Z,65.44
2018-05-04T03:18:55.215Z,65.54
2018-05-04T03:19:55.125Z,65.06
2018-05-04T03:20:55.050Z,64.78
2018-05-04T03:21:54.982Z,64.40
2018-05-04T03:22:54.888Z,64.69
2018-05-04T03:23:54.806Z,64.21
2018-05-04T03:24:54.727Z,63.83
2018-05-04T03:25:54.641Z,63.64
2018-05-04T03:26:54.590Z,63.83
2018-05-04T03:27:54.489Z,63.35
2018-05-04T03:28:54.389Z,62.02
2018-05-04T03:29:54.317Z,62.02
2018-05-04T03:30:54.226Z,61.93
2018-05-04T03:31:54.151Z,61.93
2018-05-04T03:32:54.065Z,61.55
2018-05-04T03:33:53.976Z,60.79
2018-05-04T03:34:53.903Z,60.38
2018-05-04T03:35:53.816Z,60.47
2018-05-04T03:36:53.742Z,60.10
2018-05-04T03:37:53.653Z,60.13
2018-05-04T03:38:53.587Z,60.22
2018-05-04T03:39:53.489Z,59.36
2018-05-04T03:40:53.414Z,59.52
2018-05-04T03:41:53.326Z,59.52
2018-05-04T03:42:53.298Z,59.62
2018-05-04T03:43:53.167Z,60.00
2018-05-04T03:44:53.079Z,59.05
2018-05-04T03:45:53.017Z,59.52
2018-05-04T03:46:52.917Z,59.52
2018-05-04T03:47:52.830Z,59.43
2018-05-04T03:48:52.754Z,59.33
2018-05-04T03:49:52.667Z,59.43
2018-05-04T03:50:52.593Z,59.43
2018-05-04T03:51:52.502Z,59.05
2018-05-04T03:52:52.428Z,58.98
2018-05-04T03:53:52.342Z,59.55
2018-05-04T03:54:52.256Z,58.70
2018-05-04T03:55:52.181Z,59.24
2018-05-04T03:56:52.094Z,59.24
2018-05-04T03:57:52.018Z,59.46
2018-05-04T03:58:51.931Z,59.33
2018-05-04T03:59:51.853Z,60.13
2018-05-04T04:00:51.767Z,60.13
2018-05-04T04:01:51.679Z,60.13
2018-05-04T04:02:51.604Z,59.17
2018-05-04T04:03:51.517Z,59.17
2018-05-04T04:04:51.443Z,58.98
2018-05-04T04:05:51.356Z,59.36
2018-05-04T04:06:51.278Z,58.29
2018-05-04T04:07:51.195Z,58.98
2018-05-04T04:08:51.110Z,58.98
2018-05-04T04:09:51.036Z,58.51
2018-05-04T04:10:50.945Z,58.22
2018-05-04T04:11:50.868Z,58.32
2018-05-04T04:12:50.780Z,59.17
2018-05-04T04:13:50.696Z,59.17
2018-05-04T04:14:50.617Z,58.70
2018-05-04T04:15:50.532Z,59.08
2018-05-04T04:16:50.457Z,59.27
2018-05-04T04:17:50.378Z,57.94
2018-05-04T04:18:50.296Z,59.36
2018-05-04T04:19:50.209Z,59.36
2018-05-04T04:20:50.122Z,60.31
2018-05-04T04:21:50.046Z,61.26
2018-05-04T04:22:49.958Z,62.05
2018-05-04T04:23:49.883Z,62.91
2018-05-04T04:24:49.794Z,64.43
2018-05-04T04:25:49.719Z,66.05
2018-05-04T04:26:49.631Z,68.80
2018-05-04T04:27:49.549Z,70.99
2018-05-04T04:28:49.472Z,70.51
2018-05-04T04:29:49.385Z,70.26
2018-05-04T04:30:49.322Z,71.27
2018-05-04T04:31:49.220Z,71.02
2018-05-04T04:32:49.150Z,72.74
2018-05-04T04:33:49.057Z,72.92
2018-05-04T04:34:48.982Z,74.26
2018-05-04T04:35:48.897Z,75.11
2018-05-04T04:36:48.826Z,74.82
2018-05-04T04:37:48.748Z,73.69
2018-05-04T04:38:48.665Z,73.02
2018-05-04T04:39:48.570Z,72.74
2018-05-04T04:40:48.483Z,74.44
2018-05-04T04:41:48.409Z,75.34
2018-05-04T04:42:48.322Z,75.72
2018-05-04T04:43:48.252Z,75.34
2018-05-04T04:44:48.173Z,76.39
2018-05-04T04:45:48.086Z,74.29
2018-05-04T04:46:48.001Z,75.05
2018-05-04T04:47:47.922Z,75.24
2018-05-04T04:48:47.833Z,75.05
2018-05-04T04:49:47.759Z,75.24
2018-05-04T04:50:47.672Z,74.58
2018-05-04T04:51:47.597Z,75.34
2018-05-04T04:52:47.509Z,74.10
2018-05-04T04:53:47.436Z,76.67
2018-05-04T04:54:47.353Z,77.81
2018-05-04T04:55:47.274Z,77.85
2018-05-04T04:56:47.200Z,84.23
2018-05-04T04:57:47.100Z,82.27
2018-05-04T04:58:47.025Z,83.03
2018-05-04T04:59:46.936Z,80.65
2018-05-04T05:00:46.860Z,84.27
2018-05-04T05:01:46.780Z,85.99
2018-05-04T05:02:46.698Z,81.13
2018-05-04T05:03:46.613Z,81.13
2018-05-04T05:04:46.537Z,85.99
2018-05-04T05:05:46.452Z,85.32
2018-05-04T05:06:46.376Z,82.56
2018-05-04T05:07:46.300Z,80.65
2018-05-04T05:08:46.213Z,81.60
2018-05-04T05:09:46.139Z,85.70
2018-05-04T05:10:46.054Z,83.80
2018-05-04T05:11:45.974Z,83.13
2018-05-04T05:12:45.886Z,87.03
2018-05-04T05:13:45.812Z,86.55
2018-05-04T05:14:45.728Z,86.08
2018-05-04T05:15:45.652Z,84.36
2018-05-04T05:16:45.563Z,87.03
2018-05-04T05:17:45.489Z,85.60
2018-05-04T05:18:45.403Z,85.64
2018-05-04T05:19:45.325Z,84.03
2018-05-04T05:20:45.237Z,84.65
2018-05-04T05:21:45.162Z,86.88
2018-05-04T05:22:45.077Z,86.69
2018-05-04T05:23:45.007Z,86.88
2018-05-04T05:24:44.913Z,90.22
2018-05-04T05:25:44.851Z,89.55
2018-05-04T05:26:44.751Z,84.41
2018-05-04T05:27:44.681Z,87.55
2018-05-04T05:28:44.592Z,86.32
2018-05-04T05:29:44.515Z,87.74
2018-05-04T05:30:44.454Z,88.31
2018-05-04T05:31:44.352Z,90.12
2018-05-04T05:32:44.280Z,88.51
2018-05-04T05:33:44.188Z,88.31
2018-05-04T05:34:44.114Z,91.74
2018-05-04T05:35:44.029Z,86.32
2018-05-04T05:36:43.954Z,90.22
2018-05-04T05:37:43.866Z,89.17
2018-05-04T05:38:43.791Z,90.41
2018-05-04T05:39:43.704Z,90.12
2018-05-04T05:40:43.630Z,88.89
2018-05-04T05:41:43.543Z,89.79
2018-05-04T05:42:43.466Z,88.17
2018-05-04T05:43:43.396Z,88.93
2018-05-04T05:44:43.303Z,85.60
2018-05-04T05:45:43.230Z,88.26
2018-05-04T05:46:43.140Z,93.60
2018-05-04T05:47:43.079Z,88.93
2018-05-04T05:48:42.982Z,89.60
2018-05-04T05:49:42.906Z,90.84
2018-05-04T05:50:42.829Z,90.26
2018-05-04T05:51:42.740Z,90.55
2018-05-04T05:52:42.666Z,89.79
2018-05-04T05:53:42.589Z,90.55
2018-05-04T05:54:42.527Z,91.79
2018-05-04T05:55:42.416Z,91.13
2018-05-04T05:56:42.341Z,91.31
2018-05-04T05:57:43.429Z,92.08
2018-05-04T05:58:42.178Z,89.03
2018-05-04T05:59:49.174Z,90.26
2018-05-04T06:00:42.031Z,87.21
2018-05-04T06:01:41.943Z,88.88
2018-05-04T06:02:41.858Z,90.79
2018-05-04T06:03:41.780Z,91.83
2018-05-04T06:04:41.693Z,90.41
2018-05-04T06:05:41.617Z,94.32
2018-05-04T06:06:41.541Z,89.36
2018-05-04T06:07:41.457Z,91.74
2018-05-04T06:08:41.382Z,91.74
2018-05-04T06:09:41.293Z,87.45
2018-05-04T06:10:41.222Z,92.03
2018-05-04T06:11:41.143Z,92.41
2018-05-04T06:12:41.058Z,90.50
2018-05-04T06:13:40.982Z,91.55
2018-05-04T06:14:40.896Z,91.27
2018-05-04T06:15:40.817Z,89.64
2018-05-04T06:16:40.731Z,91.46
2018-05-04T06:17:40.656Z,90.59
2018-05-04T06:18:40.587Z,91.46
2018-05-04T06:19:40.495Z,90.93
2018-05-04T06:20:40.427Z,91.21
2018-05-04T06:21:40.334Z,91.50
2018-05-04T06:22:40.258Z,91.41
2018-05-04T06:23:40.170Z,90.55
2018-05-04T06:24:40.094Z,89.78
2018-05-04T06:25:40.020Z,89.40
2018-05-04T06:26:39.932Z,90.73
2018-05-04T06:27:39.857Z,90.36
2018-05-04T06:28:39.770Z,90.17
2018-05-04T06:29:39.693Z,89.69
2018-05-04T06:30:39.619Z,89.69
2018-05-04T06:31:39.538Z,89.59
2018-05-04T06:32:39.459Z,87.30
2018-05-04T06:33:39.375Z,87.59
2018-05-04T06:34:39.297Z,87.40
2018-05-04T06:35:39.219Z,87.49
2018-05-04T06:36:39.132Z,86.30
2018-05-04T06:37:39.058Z,85.44
2018-05-04T06:38:38.971Z,85.34
2018-05-04T06:39:38.965Z,88.40
2018-05-04T06:40:38.822Z,87.92
2018-05-04T06:41:38.735Z,80.19
2018-05-04T06:42:38.663Z,82.76
2018-05-04T06:43:38.584Z,83.81
2018-05-04T06:44:38.498Z,80.76
2018-05-04T06:45:38.432Z,73.03
2018-05-04T06:46:38.334Z,68.54
2018-05-04T06:47:38.261Z,66.53
2018-05-04T06:48:38.239Z,68.82
2018-05-04T06:49:38.110Z,72.39
2018-05-04T06:50:38.023Z,71.06
2018-05-04T06:51:37.946Z,72.39
2018-05-04T06:52:37.859Z,75.64
2018-05-04T06:53:37.785Z,68.67
2018-05-04T06:54:37.701Z,68.00
2018-05-04T06:55:37.625Z,67.33
2018-05-04T06:56:37.550Z,69.53
2018-05-04T06:57:37.462Z,61.22
2018-05-04T06:58:37.388Z,64.31
2018-05-04T06:59:37.312Z,60.93
2018-05-04T07:00:37.224Z,61.79
2018-05-04T07:01:37.156Z,59.12
2018-05-04T07:02:37.074Z,57.53
2018-05-04T07:03:36.997Z,56.25
2018-05-04T07:04:36.912Z,57.02
2018-05-04T07:05:36.836Z,54.25
2018-05-04T07:06:36.748Z,53.77
2018-05-04T07:07:36.675Z,52.94
2018-05-04T07:08:36.600Z,53.41
2018-05-04T07:09:36.514Z,54.37
2018-05-04T07:10:36.439Z,55.80
2018-05-04T07:11:36.350Z,57.14
2018-05-04T07:12:36.273Z,55.52
2018-05-04T07:13:36.199Z,52.10
2018-05-04T07:14:36.112Z,51.91
2018-05-04T07:15:36.037Z,52.10
2018-05-04T07:16:35.962Z,54.49
2018-05-04T07:17:35.875Z,53.34
2018-05-04T07:18:35.800Z,53.34
2018-05-04T07:19:35.726Z,54.49
2018-05-04T07:20:35.651Z,55.38
2018-05-04T07:21:35.565Z,50.60
2018-05-04T07:22:35.490Z,47.16
2018-05-04T07:23:35.416Z,47.27
2018-05-04T07:24:35.324Z,48.07
2018-05-04T07:25:35.250Z,47.87
2018-05-04T07:26:35.177Z,44.90
2018-05-04T07:27:35.091Z,45.09
2018-05-04T07:28:35.080Z,45.76
2018-05-04T07:29:34.941Z,46.94
2018-05-04T07:30:34.866Z,45.43
2018-05-04T07:31:34.778Z,44.01
2018-05-04T07:32:34.717Z,42.30
2018-05-04T07:33:34.628Z,40.70
2018-05-04T07:34:34.553Z,40.14
2018-05-04T07:35:34.476Z,39.47
2018-05-04T07:36:34.390Z,38.60
2018-05-04T07:37:34.314Z,38.35
2018-05-04T07:38:34.239Z,36.74
2018-05-04T07:39:34.167Z,36.47
2018-05-04T07:40:34.092Z,35.41
2018-05-04T07:41:34.017Z,35.77
2018-05-04T07:42:33.943Z,34.68
2018-05-04T07:43:33.866Z,34.03
2018-05-04T07:44:33.790Z,35.57
2018-05-04T07:45:33.715Z,35.83
2018-05-04T07:46:33.647Z,34.61
2018-05-04T07:47:33.568Z,33.56
2018-05-04T07:48:33.495Z,33.56
2018-05-04T07:49:33.417Z,33.56
2018-05-04T07:50:33.343Z,33.56
2018-05-04T07:51:33.265Z,33.47
2018-05-04T07:52:33.197Z,34.16
2018-05-04T07:53:33.128Z,33.79
2018-05-04T07:54:33.068Z,33.12
2018-05-04T07:55:32.980Z,32.25
2018-05-04T07:56:32.906Z,30.34
2018-05-04T07:57:32.830Z,32.34
2018-05-04T07:58:32.756Z,31.18
2018-05-04T07:59:32.695Z,31.08
2018-05-04T08:00:32.620Z,30.97
2018-05-04T08:01:32.541Z,31.15
2018-05-04T08:02:32.466Z,31.62
2018-05-04T08:03:32.404Z,33.05
2018-05-04T08:04:32.328Z,32.97
2018-05-04T08:05:32.266Z,32.89
2018-05-04T08:06:32.197Z,32.87
2018-05-04T08:07:32.120Z,31.32
2018-05-04T08:08:32.068Z,30.85
2018-05-04T08:09:31.970Z,30.76
2018-05-04T08:10:31.906Z,30.00
2018-05-04T08:11:31.830Z,31.27
2018-05-04T08:12:31.767Z,31.08
2018-05-04T08:13:31.697Z,31.19
2018-05-04T08:14:31.618Z,31.30
2018-05-04T08:15:31.545Z,30.35
2018-05-04T08:16:31.487Z,29.39
2018-05-04T08:17:31.411Z,29.29
2018-05-04T08:18:31.351Z,29.97
2018-05-04T08:19:31.271Z,30.43
2018-05-04T08:20:31.205Z,29.08
2018-05-04T08:21:31.132Z,28.22
2018-05-04T08:22:31.078Z,28.03
2018-05-04T08:23:31.000Z,27.37
2018-05-04T08:24:30.920Z,28.51
2018-05-04T08:25:30.846Z,29.39
2018-05-04T08:26:30.782Z,29.50
2018-05-04T08:27:30.794Z,29.71
2018-05-04T08:28:30.645Z,27.98
2018-05-04T08:29:30.572Z,27.14
2018-05-04T08:30:30.508Z,27.04
2018-05-04T08:31:30.431Z,28.02
2018-05-04T08:32:30.370Z,26.86
2018-05-04T08:33:30.299Z,27.85
2018-05-04T08:34:30.232Z,29.13
2018-05-04T08:35:30.202Z,29.53
2018-05-04T08:36:30.096Z,28.48
2018-05-04T08:37:30.038Z,27.51
2018-05-04T08:38:29.971Z,26.45
2018-05-04T08:39:29.901Z,25.76
2018-05-04T08:40:29.828Z,26.34
2018-05-04T08:41:29.772Z,22.67
2018-05-04T08:42:29.701Z,22.58
2018-05-04T08:43:29.620Z,23.72
2018-05-04T08:44:29.571Z,24.32
2018-05-04T08:45:29.484Z,26.73
2018-05-04T08:46:29.421Z,26.12
2018-05-04T08:47:29.373Z,27.75
2018-05-04T08:48:29.285Z,30.26
2018-05-04T08:49:29.223Z,26.23
2018-05-04T08:50:29.163Z,25.38
2018-05-04T08:51:29.083Z,25.49
2018-05-04T08:52:29.025Z,24.05
2018-05-04T08:53:28.959Z,23.66
2018-05-04T08:54:28.957Z,24.32
2018-05-04T08:55:28.825Z,25.48
2018-05-04T08:56:28.760Z,26.64
2018-05-04T08:57:28.797Z,25.60
2018-05-04T08:58:28.625Z,25.90
2018-05-04T08:59:28.559Z,24.28
2018-05-04T09:00:28.497Z,22.82
2018-05-04T09:01:28.427Z,22.53
2018-05-04T09:02:28.359Z,21.62
2018-05-04T09:03:28.300Z,22.88
2018-05-04T09:04:28.225Z,24.32
2018-05-04T09:05:28.291Z,25.28
2018-05-04T09:06:28.100Z,25.40
2018-05-04T09:07:28.095Z,25.57
2018-05-04T09:08:27.962Z,26.75
2018-05-04T09:09:27.900Z,27.40
2018-05-04T09:10:27.837Z,24.57
2018-05-04T09:11:27.774Z,25.16
2018-05-04T09:12:27.699Z,25.56
2018-05-04T09:13:27.636Z,25.86
2018-05-04T09:14:27.576Z,26.17
2018-05-04T09:15:27.512Z,25.12
2018-05-04T09:16:27.438Z,23.76
2018-05-04T09:17:27.378Z,26.37
2018-05-04T09:18:27.314Z,25.50
2018-05-04T09:19:27.249Z,24.91
2018-05-04T09:20:27.180Z,24.82
2018-05-04T09:21:27.111Z,25.02
2018-05-04T09:28:27.076Z,26.18
2018-05-04T09:30:26.526Z,23.86
2018-05-04T09:31:26.475Z,23.88
2018-05-04T09:32:26.388Z,24.87
2018-05-04T09:33:26.331Z,24.98
2018-05-04T09:34:26.279Z,24.51
2018-05-04T09:36:08.326Z,24.58
2018-05-04T09:37:08.253Z,25.26
2018-05-04T09:38:08.189Z,25.56
2018-05-04T09:39:08.129Z,26.82
2018-05-04T09:40:08.057Z,25.39
2018-05-04T09:41:07.991Z,24.91
2018-05-04T09:42:07.916Z,24.29
2018-05-04T09:43:07.852Z,24.60
2018-05-04T09:44:07.789Z,24.60
2018-05-04T09:45:07.714Z,23.72
2018-05-04T09:46:07.653Z,22.77
2018-05-04T09:47:07.582Z,21.72
2018-05-04T10:15:30.441Z,33.05
2018-05-04T10:16:30.331Z,33.40
2018-05-04T10:17:30.267Z,34.92
2018-05-04T10:18:30.211Z,35.40
2018-05-04T10:19:30.120Z,37.43
2018-05-04T10:20:30.045Z,36.20
2018-05-04T10:21:29.970Z,36.32
2018-05-04T10:22:29.906Z,36.15
2018-05-04T10:23:29.819Z,34.72
2018-05-04T10:24:29.744Z,34.81
2018-05-04T10:25:29.669Z,35.02
2018-05-04T10:26:29.609Z,33.87
2018-05-04T10:27:29.536Z,33.12
2018-05-04T10:28:29.459Z,32.06
2018-05-04T10:29:29.386Z,32.06
2018-05-04T10:30:29.309Z,33.79
2018-05-04T10:31:29.317Z,32.54
2018-05-04T10:32:29.165Z,30.24
2018-05-04T10:33:29.085Z,30.34
2018-05-04T10:34:29.008Z,30.43
2018-05-04T10:35:28.966Z,30.15
2018-05-04T10:36:28.858Z,30.74
2018-05-04T10:37:28.795Z,29.68
2018-05-04T10:38:28.799Z,28.15
2018-05-04T10:39:28.647Z,26.54
2018-05-04T10:40:28.572Z,24.50
2018-05-04T10:41:28.497Z,26.79
2018-05-04T10:42:28.433Z,27.75
2018-05-04T10:43:28.345Z,28.52
2018-05-04T10:44:28.270Z,27.33
2018-05-04T10:45:28.196Z,27.51
2018-05-04T10:46:28.134Z,29.62
2018-05-04T10:47:28.059Z,29.44
2018-05-04T10:48:27.984Z,28.61
2018-05-04T10:49:27.909Z,26.80
2018-05-04T10:50:27.848Z,26.45
2018-05-04T10:51:27.790Z,25.10
2018-05-04T10:52:27.698Z,24.13
2018-05-04T10:53:27.637Z,25.10
2018-05-04T10:54:27.561Z,25.61
2018-05-04T10:55:27.485Z,26.61
2018-05-04T10:56:27.421Z,25.08
2018-05-04T10:57:27.347Z,22.84
2018-05-04T10:58:27.289Z,22.66
2018-05-04T10:59:27.238Z,22.19
2018-05-04T11:00:27.149Z,21.28
2018-05-04T11:01:27.089Z,21.77
2018-05-04T11:02:27.030Z,22.91
2018-05-04T11:03:26.951Z,23.68
2018-05-04T11:04:26.888Z,24.26
2018-05-04T11:05:26.878Z,24.28
2018-05-04T11:06:26.749Z,23.50
2018-05-04T11:07:26.686Z,23.02
2018-05-04T11:08:26.625Z,23.41
2018-05-04T11:09:26.562Z,23.70
2018-05-04T11:10:26.513Z,23.24
2018-05-04T11:11:26.438Z,22.27
2018-05-04T11:12:26.375Z,21.40
2018-05-04T11:13:26.313Z,21.79
2018-05-04T11:14:26.245Z,21.97
2018-05-04T11:15:26.174Z,22.91
2018-05-04T11:16:26.112Z,22.22
2018-05-04T11:17:26.048Z,23.10
2018-05-04T11:18:25.995Z,23.88
2018-05-04T11:19:25.957Z,24.95
2018-05-04T11:20:25.851Z,25.25
2018-05-04T11:21:25.790Z,24.18
2018-05-04T11:22:25.724Z,23.49
2018-05-04T11:23:25.661Z,22.92
2018-05-04T11:24:25.601Z,22.66
2018-05-04T11:25:25.550Z,24.11
2018-05-04T11:26:25.479Z,23.63
2018-05-04T11:27:25.415Z,23.44
2018-05-04T11:28:25.353Z,23.55
2018-05-04T11:29:25.293Z,22.08
2018-05-04T11:30:25.225Z,22.67
2018-05-04T11:31:25.163Z,23.55
2018-05-04T11:32:25.089Z,23.16
2018-05-04T11:33:25.026Z,23.07
2018-05-04T11:34:24.964Z,22.02
2018-05-04T11:35:24.900Z,20.65
2018-05-04T11:36:24.839Z,22.09
2018-05-04T11:37:24.792Z,23.42
2018-05-04T11:38:24.716Z,23.63
2018-05-04T11:39:24.653Z,22.68
2018-05-04T11:40:24.590Z,22.49
2018-05-04T11:41:24.527Z,21.83
2018-05-04T11:42:24.467Z,21.93
2018-05-04T11:43:24.405Z,22.80
2018-05-04T11:44:24.339Z,22.23
2018-05-04T11:45:24.288Z,23.19
2018-05-04T11:46:24.218Z,23.49
2018-05-04T11:47:24.153Z,20.88
2018-05-04T11:48:24.092Z,19.50
2018-05-04T11:49:24.029Z,20.27
2018-05-04T11:50:23.967Z,20.15
2018-05-04T11:51:23.904Z,20.43
2018-05-04T11:52:23.842Z,21.38
2018-05-04T11:53:23.780Z,21.85
2018-05-04T11:54:23.715Z,23.92
2018-05-04T11:55:23.652Z,23.82
2018-05-04T11:56:23.579Z,22.88
2018-05-04T11:57:23.541Z,23.16
2018-05-04T11:58:23.456Z,21.93
2018-05-04T11:59:23.407Z,20.74
2018-05-04T12:00:23.330Z,21.41
2018-05-04T12:01:23.269Z,22.97
2018-05-04T12:02:23.287Z,21.88
2018-05-04T12:03:23.142Z,21.61
2018-05-04T12:04:23.078Z,21.71
2018-05-04T12:05:23.016Z,22.68
2018-05-04T12:06:22.953Z,21.40
2018-05-04T12:07:22.892Z,22.95
2018-05-04T12:08:22.828Z,21.78
2018-05-04T12:09:22.767Z,22.95
2018-05-04T12:10:22.705Z,21.71
2018-05-04T12:11:22.645Z,22.78
2018-05-04T12:12:22.581Z,23.16
2018-05-04T12:13:22.546Z,23.85
2018-05-04T12:14:22.454Z,21.89
2018-05-04T12:15:22.393Z,21.81
2018-05-04T12:16:22.389Z,19.68
2018-05-04T12:17:22.256Z,18.53
2018-05-04T12:18:22.196Z,19.40
2018-05-04T12:19:22.134Z,20.77
2018-05-04T12:20:22.081Z,20.28
2018-05-04T12:21:22.010Z,20.29
2018-05-04T12:22:21.946Z,21.50
2018-05-04T12:23:21.882Z,24.03
2018-05-04T12:24:21.820Z,22.67
2018-05-04T12:25:21.757Z,21.50
2018-05-04T12:26:21.695Z,21.92
2018-05-04T12:27:21.630Z,23.69
2018-05-04T12:28:21.569Z,22.71
2018-05-04T12:29:21.507Z,22.79
2018-05-04T12:30:21.447Z,20.93
2018-05-04T12:31:21.395Z,22.17
2018-05-04T12:32:21.313Z,21.98
2018-05-04T12:33:21.247Z,22.92
2018-05-04T12:34:21.249Z,23.23
2018-05-04T12:35:21.120Z,25.47
2018-05-04T12:36:21.056Z,24.40
2018-05-04T12:37:20.995Z,22.85
2018-05-04T12:38:20.931Z,23.23
2018-05-04T12:39:20.870Z,23.14
2018-05-04T12:40:20.807Z,22.96
2018-05-04T12:41:20.745Z,22.00
2018-05-04T12:42:20.684Z,22.11
2018-05-04T12:43:20.623Z,21.91
2018-05-04T12:44:20.560Z,20.85
2018-05-04T12:45:20.502Z,21.44
2018-05-04T12:46:20.432Z,21.15
2018-05-04T12:47:20.371Z,20.67
2018-05-04T12:48:20.308Z,20.09
2018-05-04T12:49:20.247Z,20.58
2018-05-04T12:50:20.188Z,19.51
2018-05-04T12:51:20.111Z,18.35
2018-05-04T12:52:20.048Z,17.18
2018-05-04T12:53:19.985Z,17.56
2018-05-04T12:54:19.923Z,20.74
2018-05-04T12:55:19.873Z,21.91
2018-05-04T12:56:19.803Z,21.99
2018-05-04T12:57:19.735Z,22.48
2018-05-04T12:58:19.673Z,21.33
2018-05-04T12:59:19.610Z,20.65
2018-05-04T13:00:19.548Z,20.47
2018-05-04T13:01:19.486Z,20.18
2018-05-04T13:02:19.424Z,21.26
2018-05-04T13:03:19.374Z,19.78
2018-05-04T13:04:19.289Z,20.65
2018-05-04T13:05:19.225Z,21.14
2018-05-04T13:06:19.173Z,21.04
2018-05-04T13:07:19.104Z,21.36
2018-05-04T13:08:19.038Z,20.29
2018-05-04T13:09:18.974Z,20.10
2018-05-04T13:10:18.912Z,18.95
2018-05-04T13:11:18.855Z,18.37
2018-05-04T13:12:18.785Z,18.55
2018-05-04T13:13:18.725Z,18.92
2018-05-04T13:14:18.676Z,19.40
2018-05-04T13:15:18.606Z,20.12
2018-05-04T13:16:18.538Z,21.79
2018-05-04T13:17:18.488Z,22.47
2018-05-04T13:18:18.411Z,21.20
2018-05-04T13:19:18.337Z,21.96
2018-05-04T13:20:18.275Z,21.39
2018-05-04T13:21:18.212Z,21.78
2018-05-04T13:22:18.151Z,22.55
2018-05-04T13:23:18.132Z,21.40
2018-05-04T13:24:18.027Z,21.40
2018-05-04T13:25:17.963Z,20.92
2018-05-04T13:26:17.906Z,21.38